sensor_id;sensor_type;location;lat;lon;timestamp;pressure;altitude;pressure_sealevel;temperature
15544;BMP180;7873;52.230;12.856;2022-09-03T00:02:33;101142.22;;;24.29
15544;BMP180;7873;52.230;12.856;2022-09-03T00:05:05;101140.56;;;24.28
15544;BMP180;7873;52.230;12.856;2022-09-03T00:07:42;101138.03;;;24.27
15544;BMP180;7873;52.230;12.856;2022-09-03T00:10:15;101138.69;;;24.29
15544;BMP180;7873;52.230;12.856;2022-09-03T00:12:45;101141.03;;;24.32
15544;BMP180;7873;52.230;12.856;2022-09-03T00:15:14;101134.31;;;24.28
15544;BMP180;7873;52.230;12.856;2022-09-03T00:17:46;101138.88;;;24.27
15544;BMP180;7873;52.230;12.856;2022-09-03T00:20:16;101136.50;;;24.24
15544;BMP180;7873;52.230;12.856;2022-09-03T00:22:47;101144.41;;;24.26
15544;BMP180;7873;52.230;12.856;2022-09-03T00:25:18;101135.34;;;24.27
15544;BMP180;7873;52.230;12.856;2022-09-03T00:27:50;101142.75;;;24.25
15544;BMP180;7873;52.230;12.856;2022-09-03T00:30:20;101141.06;;;24.24
15544;BMP180;7873;52.230;12.856;2022-09-03T00:32:53;101138.38;;;24.24
15544;BMP180;7873;52.230;12.856;2022-09-03T00:35:25;101141.06;;;24.24
15544;BMP180;7873;52.230;12.856;2022-09-03T00:37:54;101136.50;;;24.24
15544;BMP180;7873;52.230;12.856;2022-09-03T00:40:31;101133.00;;;24.24
15544;BMP180;7873;52.230;12.856;2022-09-03T00:43:08;101127.78;;;24.22
15544;BMP180;7873;52.230;12.856;2022-09-03T00:45:43;101126.09;;;24.21
15544;BMP180;7873;52.230;12.856;2022-09-03T00:48:20;101125.44;;;24.19
15544;BMP180;7873;52.230;12.856;2022-09-03T00:51:01;101124.63;;;24.19
15544;BMP180;7873;52.230;12.856;2022-09-03T00:53:36;101121.91;;;24.19
15544;BMP180;7873;52.230;12.856;2022-09-03T00:56:08;101125.78;;;24.16
15544;BMP180;7873;52.230;12.856;2022-09-03T00:58:46;101117.72;;;24.16
15544;BMP180;7873;52.230;12.856;2022-09-03T01:01:20;101117.56;;;24.18
15544;BMP180;7873;52.230;12.856;2022-09-03T01:03:55;101118.72;;;24.15
15544;BMP180;7873;52.230;12.856;2022-09-03T01:06:29;101108.16;;;24.14
15544;BMP180;7873;52.230;12.856;2022-09-03T01:09:08;101117.06;;;24.14
15544;BMP180;7873;52.230;12.856;2022-09-03T01:11:44;101112.53;;;24.15
15544;BMP180;7873;52.230;12.856;2022-09-03T01:14:25;101108.97;;;24.14
15544;BMP180;7873;52.230;12.856;2022-09-03T01:16:59;101101.94;;;24.13
15544;BMP180;7873;52.230;12.856;2022-09-03T01:25:46;101114.22;;;24.08
15544;BMP180;7873;52.230;12.856;2022-09-03T01:28:22;101108.84;;;24.08
15544;BMP180;7873;52.230;12.856;2022-09-03T01:31:00;101114.22;;;24.08
15544;BMP180;7873;52.230;12.856;2022-09-03T01:33:36;101116.91;;;24.08
15544;BMP180;7873;52.230;12.856;2022-09-03T01:36:10;101118.94;;;24.06
15544;BMP180;7873;52.230;12.856;2022-09-03T01:38:41;101111.53;;;24.08
15544;BMP180;7873;52.230;12.856;2022-09-03T01:41:21;101110.72;;;24.07
15544;BMP180;7873;52.230;12.856;2022-09-03T01:44:19;101115.06;;;24.08
15544;BMP180;7873;52.230;12.856;2022-09-03T01:46:51;101109.84;;;24.07
15544;BMP180;7873;52.230;12.856;2022-09-03T01:49:26;101110.03;;;24.05
15544;BMP180;7873;52.230;12.856;2022-09-03T01:52:02;101107.00;;;24.08
15544;BMP180;7873;52.230;12.856;2022-09-03T01:54:52;101100.97;;;24.06
15544;BMP180;7873;52.230;12.856;2022-09-03T01:57:44;101106.50;;;24.05
15544;BMP180;7873;52.230;12.856;2022-09-03T02:00:15;101103.81;;;24.05
15544;BMP180;7873;52.230;12.856;2022-09-03T02:02:46;101104.00;;;24.03
15544;BMP180;7873;52.230;12.856;2022-09-03T02:05:15;101104.00;;;24.03
15544;BMP180;7873;52.230;12.856;2022-09-03T02:07:44;101102.31;;;24.02
15544;BMP180;7873;52.230;12.856;2022-09-03T02:10:14;101108.38;;;24.04
15544;BMP180;7873;52.230;12.856;2022-09-03T02:12:45;101105.84;;;24.03
15544;BMP180;7873;52.230;12.856;2022-09-03T02:15:17;101097.59;;;24.04
15544;BMP180;7873;52.230;12.856;2022-09-03T02:17:45;101106.84;;;24.02
15544;BMP180;7873;52.230;12.856;2022-09-03T02:20:16;101110.72;;;23.99
15544;BMP180;7873;52.230;12.856;2022-09-03T02:22:46;101110.91;;;23.98
15544;BMP180;7873;52.230;12.856;2022-09-03T02:25:14;101110.72;;;23.99
15544;BMP180;7873;52.230;12.856;2022-09-03T02:27:41;101117.78;;;24.00
15544;BMP180;7873;52.230;12.856;2022-09-03T02:30:09;101121.31;;;24.01
15544;BMP180;7873;52.230;12.856;2022-09-03T02:32:38;101121.31;;;24.01
15544;BMP180;7873;52.230;12.856;2022-09-03T02:35:06;101118.47;;;24.02
15544;BMP180;7873;52.230;12.856;2022-09-03T02:37:32;101121.31;;;24.01
15544;BMP180;7873;52.230;12.856;2022-09-03T02:39:59;101115.09;;;24.00
15544;BMP180;7873;52.230;12.856;2022-09-03T02:45:51;101111.06;;;23.96
15544;BMP180;7873;52.230;12.856;2022-09-03T02:48:22;101104.00;;;23.95
15544;BMP180;7873;52.230;12.856;2022-09-03T02:50:49;101111.25;;;23.95
15544;BMP180;7873;52.230;12.856;2022-09-03T02:53:16;101108.56;;;23.95
15544;BMP180;7873;52.230;12.856;2022-09-03T02:55:43;101110.06;;;23.97
15544;BMP180;7873;52.230;12.856;2022-09-03T02:58:09;101108.38;;;23.96
15544;BMP180;7873;52.230;12.856;2022-09-03T03:00:36;101103.34;;;23.93
15544;BMP180;7873;52.230;12.856;2022-09-03T03:03:04;101110.41;;;23.94
15544;BMP180;7873;52.230;12.856;2022-09-03T03:05:41;101108.38;;;23.96
15544;BMP180;7873;52.230;12.856;2022-09-03T03:08:09;101112.09;;;23.95
15544;BMP180;7873;52.230;12.856;2022-09-03T03:10:36;101111.41;;;23.93
15544;BMP180;7873;52.230;12.856;2022-09-03T03:13:03;101106.22;;;23.92
15544;BMP180;7873;52.230;12.856;2022-09-03T03:15:30;101108.41;;;23.88
15544;BMP180;7873;52.230;12.856;2022-09-03T03:17:57;101103.03;;;23.88
15544;BMP180;7873;52.230;12.856;2022-09-03T03:20:23;101111.28;;;23.87
15544;BMP180;7873;52.230;12.856;2022-09-03T03:22:51;101116.66;;;23.87
15544;BMP180;7873;52.230;12.856;2022-09-03T03:25:18;101113.31;;;23.85
15544;BMP180;7873;52.230;12.856;2022-09-03T03:27:45;101114.16;;;23.85
15544;BMP180;7873;52.230;12.856;2022-09-03T03:30:12;101114.50;;;23.83
15544;BMP180;7873;52.230;12.856;2022-09-03T03:32:39;101122.56;;;23.83
15544;BMP180;7873;52.230;12.856;2022-09-03T03:35:06;101121.03;;;23.80
15544;BMP180;7873;52.230;12.856;2022-09-03T03:37:33;101124.41;;;23.82
15544;BMP180;7873;52.230;12.856;2022-09-03T03:40:03;101118.88;;;23.83
15544;BMP180;7873;52.230;12.856;2022-09-03T03:42:31;101116.50;;;23.80
15544;BMP180;7873;52.230;12.856;2022-09-03T03:44:58;101112.44;;;23.76
15544;BMP180;7873;52.230;12.856;2022-09-03T03:47:27;101114.13;;;23.77
15544;BMP180;7873;52.230;12.856;2022-09-03T03:49:54;101105.91;;;23.79
15544;BMP180;7873;52.230;12.856;2022-09-03T03:52:21;101111.44;;;23.77
15544;BMP180;7873;52.230;12.856;2022-09-03T03:54:47;101115.13;;;23.76
15544;BMP180;7873;52.230;12.856;2022-09-03T03:57:16;101116.16;;;23.75
15544;BMP180;7873;52.230;12.856;2022-09-03T03:59:43;101114.66;;;23.73
15544;BMP180;7873;52.230;12.856;2022-09-03T04:02:10;101123.41;;;23.75
15544;BMP180;7873;52.230;12.856;2022-09-03T04:04:37;101120.03;;;23.73
15544;BMP180;7873;52.230;12.856;2022-09-03T04:07:03;101121.06;;;23.72
15544;BMP180;7873;52.230;12.856;2022-09-03T04:09:30;101124.56;;;23.73
15544;BMP180;7873;52.230;12.856;2022-09-03T04:11:57;101121.06;;;23.72
15544;BMP180;7873;52.230;12.856;2022-09-03T04:14:26;101117.50;;;23.72
15544;BMP180;7873;52.230;12.856;2022-09-03T04:16:53;101117.69;;;23.70
15544;BMP180;7873;52.230;12.856;2022-09-03T04:19:21;101115.16;;;23.69
15544;BMP180;7873;52.230;12.856;2022-09-03T04:21:48;101111.66;;;23.68
15544;BMP180;7873;52.230;12.856;2022-09-03T04:24:15;101110.13;;;23.66
15544;BMP180;7873;52.230;12.856;2022-09-03T04:26:41;101113.66;;;23.66
15544;BMP180;7873;52.230;12.856;2022-09-03T04:29:09;101116.53;;;23.65
15544;BMP180;7873;52.230;12.856;2022-09-03T04:31:37;101110.47;;;23.63
15544;BMP180;7873;52.230;12.856;2022-09-03T04:34:24;101115.19;;;23.61
15544;BMP180;7873;52.230;12.856;2022-09-03T04:36:50;101115.00;;;23.62
15544;BMP180;7873;52.230;12.856;2022-09-03T04:39:17;101115.19;;;23.61
15544;BMP180;7873;52.230;12.856;2022-09-03T04:41:44;101115.19;;;23.61
15544;BMP180;7873;52.230;12.856;2022-09-03T04:44:12;101104.59;;;23.59
15544;BMP180;7873;52.230;12.856;2022-09-03T04:46:40;101108.50;;;23.57
15544;BMP180;7873;52.230;12.856;2022-09-03T04:49:06;101110.47;;;23.63
15544;BMP180;7873;52.230;12.856;2022-09-03T04:51:34;101099.38;;;23.66
15544;BMP180;7873;52.230;12.856;2022-09-03T04:54:03;101102.22;;;23.72
15544;BMP180;7873;52.230;12.856;2022-09-03T04:56:31;101097.88;;;23.71
15544;BMP180;7873;52.230;12.856;2022-09-03T04:58:59;101104.38;;;23.76
15544;BMP180;7873;52.230;12.856;2022-09-03T05:01:27;101111.13;;;23.80
15544;BMP180;7873;52.230;12.856;2022-09-03T05:03:56;101111.63;;;23.84
15544;BMP180;7873;52.230;12.856;2022-09-03T05:06:24;101114.31;;;23.84
15544;BMP180;7873;52.230;12.856;2022-09-03T05:08:52;101117.19;;;23.83
15544;BMP180;7873;52.230;12.856;2022-09-03T05:11:20;101111.63;;;23.84
15544;BMP180;7873;52.230;12.856;2022-09-03T05:13:47;101118.31;;;23.88
15544;BMP180;7873;52.230;12.856;2022-09-03T05:16:16;101116.28;;;23.90
15544;BMP180;7873;52.230;12.856;2022-09-03T05:18:43;101120.34;;;23.94
15544;BMP180;7873;52.230;12.856;2022-09-03T05:21:13;101123.69;;;23.96
15544;BMP180;7873;52.230;12.856;2022-09-03T05:23:41;101120.66;;;23.99
15544;BMP180;7873;52.230;12.856;2022-09-03T05:26:10;101132.75;;;24.03
15544;BMP180;7873;52.230;12.856;2022-09-03T05:28:39;101121.81;;;24.04
15544;BMP180;7873;52.230;12.856;2022-09-03T05:31:07;101118.94;;;24.06
15544;BMP180;7873;52.230;12.856;2022-09-03T05:33:35;101114.41;;;24.06
15544;BMP180;7873;52.230;12.856;2022-09-03T05:36:04;101119.44;;;24.09
15544;BMP180;7873;52.230;12.856;2022-09-03T05:38:32;101126.31;;;24.12
15544;BMP180;7873;52.230;12.856;2022-09-03T05:41:00;101127.00;;;24.14
15544;BMP180;7873;52.230;12.856;2022-09-03T05:43:28;101133.03;;;24.16
15544;BMP180;7873;52.230;12.856;2022-09-03T05:45:56;101129.34;;;24.17
15544;BMP180;7873;52.230;12.856;2022-09-03T05:48:25;101128.31;;;24.18
15544;BMP180;7873;52.230;12.856;2022-09-03T05:50:58;101126.28;;;24.20
15544;BMP180;7873;52.230;12.856;2022-09-03T05:53:25;101126.44;;;24.18
15544;BMP180;7873;52.230;12.856;2022-09-03T05:58:22;101121.06;;;24.18
15544;BMP180;7873;52.230;12.856;2022-09-03T06:00:49;101118.22;;;24.20
15544;BMP180;7873;52.230;12.856;2022-09-03T06:03:16;101119.03;;;24.20
15544;BMP180;7873;52.230;12.856;2022-09-03T06:05:49;101120.72;;;24.21
15544;BMP180;7873;52.230;12.856;2022-09-03T06:08:16;101125.28;;;24.21
15544;BMP180;7873;52.230;12.856;2022-09-03T06:10:43;101123.41;;;24.21
15544;BMP180;7873;52.230;12.856;2022-09-03T06:13:11;101132.13;;;24.23
15544;BMP180;7873;52.230;12.856;2022-09-03T06:15:38;101133.66;;;24.26
15544;BMP180;7873;52.230;12.856;2022-09-03T06:18:05;101133.66;;;24.26
15544;BMP180;7873;52.230;12.856;2022-09-03T06:20:31;101129.28;;;24.25
15544;BMP180;7873;52.230;12.856;2022-09-03T06:22:58;101129.81;;;24.20
15544;BMP180;7873;52.230;12.856;2022-09-03T06:25:25;101139.25;;;24.16
15544;BMP180;7873;52.230;12.856;2022-09-03T06:27:52;101133.88;;;24.16
15544;BMP180;7873;52.230;12.856;2022-09-03T06:30:20;101131.88;;;24.10
15544;BMP180;7873;52.230;12.856;2022-09-03T06:32:49;101133.41;;;24.05
15544;BMP180;7873;52.230;12.856;2022-09-03T06:35:16;101139.28;;;24.08
15544;BMP180;7873;52.230;12.856;2022-09-03T06:37:44;101137.06;;;24.12
15544;BMP180;7873;52.230;12.856;2022-09-03T06:40:10;101134.88;;;24.15
15544;BMP180;7873;52.230;12.856;2022-09-03T06:42:38;101134.38;;;24.20
15544;BMP180;7873;52.230;12.856;2022-09-03T06:45:06;101127.97;;;24.21
15544;BMP180;7873;52.230;12.856;2022-09-03T06:47:34;101133.00;;;24.24
15544;BMP180;7873;52.230;12.856;2022-09-03T06:50:01;101120.56;;;24.23
15544;BMP180;7873;52.230;12.856;2022-09-03T06:52:28;101126.59;;;24.25
15544;BMP180;7873;52.230;12.856;2022-09-03T06:54:55;101133.81;;;24.24
15544;BMP180;7873;52.230;12.856;2022-09-03T06:57:22;101116.84;;;24.24
15544;BMP180;7873;52.230;12.856;2022-09-03T06:59:49;101123.06;;;24.24
15544;BMP180;7873;52.230;12.856;2022-09-03T07:02:15;101125.94;;;24.23
15544;BMP180;7873;52.230;12.856;2022-09-03T07:04:44;101126.28;;;24.20
15544;BMP180;7873;52.230;12.856;2022-09-03T07:07:11;101128.63;;;24.23
15544;BMP180;7873;52.230;12.856;2022-09-03T07:09:38;101136.50;;;24.24
15544;BMP180;7873;52.230;12.856;2022-09-03T07:12:05;101138.88;;;24.27
15544;BMP180;7873;52.230;12.856;2022-09-03T07:14:32;101137.38;;;24.25
15544;BMP180;7873;52.230;12.856;2022-09-03T07:16:59;101145.28;;;24.26
15544;BMP180;7873;52.230;12.856;2022-09-03T07:19:25;101139.03;;;24.26
15544;BMP180;7873;52.230;12.856;2022-09-03T07:21:53;101140.56;;;24.28
15544;BMP180;7873;52.230;12.856;2022-09-03T07:24:20;101144.25;;;24.27
15544;BMP180;7873;52.230;12.856;2022-09-03T07:26:47;101145.13;;;24.20
15544;BMP180;7873;52.230;12.856;2022-09-03T07:29:14;101140.56;;;24.20
15544;BMP180;7873;52.230;12.856;2022-09-03T07:31:44;101144.97;;;24.13
15544;BMP180;7873;52.230;12.856;2022-09-03T07:34:12;101140.09;;;24.09
15544;BMP180;7873;52.230;12.856;2022-09-03T07:36:42;101133.06;;;24.08
15544;BMP180;7873;52.230;12.856;2022-09-03T07:39:13;101135.75;;;24.08
15544;BMP180;7873;52.230;12.856;2022-09-03T07:41:41;101140.66;;;24.04
15544;BMP180;7873;52.230;12.856;2022-09-03T07:44:10;101143.34;;;24.04
15544;BMP180;7873;52.230;12.856;2022-09-03T07:46:37;101144.34;;;24.03
15544;BMP180;7873;52.230;12.856;2022-09-03T07:49:05;101135.78;;;24.00
15544;BMP180;7873;52.230;12.856;2022-09-03T07:51:33;101145.69;;;23.99
15544;BMP180;7873;52.230;12.856;2022-09-03T07:54:03;101147.56;;;23.99
15544;BMP180;7873;52.230;12.856;2022-09-03T07:56:34;101140.66;;;23.96
15544;BMP180;7873;52.230;12.856;2022-09-03T07:59:03;101146.38;;;23.93
15544;BMP180;7873;52.230;12.856;2022-09-03T08:01:33;101144.72;;;23.92
15544;BMP180;7873;52.230;12.856;2022-09-03T08:04:01;101147.59;;;23.91
15544;BMP180;7873;52.230;12.856;2022-09-03T08:06:29;101142.72;;;23.86
15544;BMP180;7873;52.230;12.856;2022-09-03T08:08:57;101143.53;;;23.87
15544;BMP180;7873;52.230;12.856;2022-09-03T08:11:25;101142.72;;;23.86
15544;BMP180;7873;52.230;12.856;2022-09-03T08:13:55;101148.25;;;23.85
15544;BMP180;7873;52.230;12.856;2022-09-03T08:16:26;101141.88;;;23.86
15544;BMP180;7873;52.230;12.856;2022-09-03T08:18:53;101153.84;;;23.83
15544;BMP180;7873;52.230;12.856;2022-09-03T08:21:21;101152.16;;;23.83
15544;BMP180;7873;52.230;12.856;2022-09-03T08:23:50;101138.00;;;23.80
15544;BMP180;7873;52.230;12.856;2022-09-03T08:26:18;101138.00;;;23.80
15544;BMP180;7873;52.230;12.856;2022-09-03T08:28:45;101135.47;;;23.79
15544;BMP180;7873;52.230;12.856;2022-09-03T08:31:15;101137.16;;;23.80
15544;BMP180;7873;52.230;12.856;2022-09-03T08:33:45;101138.00;;;23.80
15544;BMP180;7873;52.230;12.856;2022-09-03T08:36:14;101126.28;;;23.82
15544;BMP180;7873;52.230;12.856;2022-09-03T08:38:42;101134.34;;;23.82
15544;BMP180;7873;52.230;12.856;2022-09-03T08:41:12;101132.13;;;23.85
15544;BMP180;7873;52.230;12.856;2022-09-03T08:44:13;101124.91;;;23.85
15544;BMP180;7873;52.230;12.856;2022-09-03T08:46:48;101127.06;;;23.90
15544;BMP180;7873;52.230;12.856;2022-09-03T08:49:21;101129.75;;;23.90
15544;BMP180;7873;52.230;12.856;2022-09-03T08:51:49;101133.13;;;23.92
15544;BMP180;7873;52.230;12.856;2022-09-03T08:54:18;101129.44;;;23.93
15544;BMP180;7873;52.230;12.856;2022-09-03T08:56:46;101126.91;;;23.91
15544;BMP180;7873;52.230;12.856;2022-09-03T08:59:13;101120.00;;;23.89
15544;BMP180;7873;52.230;12.856;2022-09-03T09:01:49;101119.19;;;23.88
15544;BMP180;7873;52.230;12.856;2022-09-03T09:04:29;101126.41;;;23.88
15544;BMP180;7873;52.230;12.856;2022-09-03T09:07:05;101115.47;;;23.89
15544;BMP180;7873;52.230;12.856;2022-09-03T09:09:40;101116.50;;;23.88
15544;BMP180;7873;52.230;12.856;2022-09-03T09:12:21;101111.47;;;23.85
15544;BMP180;7873;52.230;12.856;2022-09-03T09:15:02;101105.06;;;23.86
15544;BMP180;7873;52.230;12.856;2022-09-03T09:17:43;101122.03;;;23.87
15544;BMP180;7873;52.230;12.856;2022-09-03T09:20:16;101113.81;;;23.88
15544;BMP180;7873;52.230;12.856;2022-09-03T09:22:46;101114.63;;;23.81
15544;BMP180;7873;52.230;12.856;2022-09-03T09:25:17;101108.78;;;23.85
15544;BMP180;7873;52.230;12.856;2022-09-03T09:27:49;101107.56;;;23.88
15544;BMP180;7873;52.230;12.856;2022-09-03T09:30:17;101099.19;;;23.91
15544;BMP180;7873;52.230;12.856;2022-09-03T09:32:46;101099.66;;;23.94
15544;BMP180;7873;52.230;12.856;2022-09-03T09:35:13;101094.13;;;23.88
15544;BMP180;7873;52.230;12.856;2022-09-03T09:37:48;101097.66;;;23.88
15544;BMP180;7873;52.230;12.856;2022-09-03T09:40:27;101089.91;;;23.93
15544;BMP180;7873;52.230;12.856;2022-09-03T09:43:05;101091.06;;;23.99
15544;BMP180;7873;52.230;12.856;2022-09-03T09:45:31;101085.19;;;23.95
15544;BMP180;7873;52.230;12.856;2022-09-03T09:48:01;101085.75;;;23.83
15544;BMP180;7873;52.230;12.856;2022-09-03T09:50:28;101085.22;;;23.87
15544;BMP180;7873;52.230;12.856;2022-09-03T09:52:59;101073.25;;;23.90
15544;BMP180;7873;52.230;12.856;2022-09-03T09:55:29;101085.88;;;23.89
15544;BMP180;7873;52.230;12.856;2022-09-03T09:58:04;101078.63;;;23.90
15544;BMP180;7873;52.230;12.856;2022-09-03T10:00:34;101066.41;;;23.87
15544;BMP180;7873;52.230;12.856;2022-09-03T10:03:06;101081.00;;;23.93
15544;BMP180;7873;52.230;12.856;2022-09-03T10:05:36;101056.59;;;23.94
15544;BMP180;7873;52.230;12.856;2022-09-03T10:08:06;101072.41;;;23.97
15544;BMP180;7873;52.230;12.856;2022-09-03T10:10:45;101060.25;;;24.01
15544;BMP180;7873;52.230;12.856;2022-09-03T10:13:17;101054.56;;;24.04
15544;BMP180;7873;52.230;12.856;2022-09-03T10:15:48;101067.50;;;24.01
15544;BMP180;7873;52.230;12.856;2022-09-03T10:18:22;101064.16;;;23.99
15544;BMP180;7873;52.230;12.856;2022-09-03T10:20:57;101060.81;;;23.97
15544;BMP180;7873;52.230;12.856;2022-09-03T10:23:34;101063.66;;;23.95
15544;BMP180;7873;52.230;12.856;2022-09-03T10:26:04;101056.81;;;23.93
15544;BMP180;7873;52.230;12.856;2022-09-03T10:28:34;101054.78;;;23.95
15544;BMP180;7873;52.230;12.856;2022-09-03T10:31:15;101074.72;;;24.00
15544;BMP180;7873;52.230;12.856;2022-09-03T10:33:51;101056.41;;;24.04
15544;BMP180;7873;52.230;12.856;2022-09-03T10:36:23;101055.22;;;24.06
15544;BMP180;7873;52.230;12.856;2022-09-03T10:38:56;101057.56;;;24.09
15544;BMP180;7873;52.230;12.856;2022-09-03T10:41:35;101057.25;;;24.04
15544;BMP180;7873;52.230;12.856;2022-09-03T10:44:20;101048.97;;;24.06
15544;BMP180;7873;52.230;12.856;2022-09-03T10:47:00;101046.34;;;23.98
15544;BMP180;7873;52.230;12.856;2022-09-03T10:49:41;101045.34;;;23.99
15544;BMP180;7873;52.230;12.856;2022-09-03T10:52:16;101046.00;;;24.01
15544;BMP180;7873;52.230;12.856;2022-09-03T10:54:54;101040.09;;;24.05
15544;BMP180;7873;52.230;12.856;2022-09-03T10:57:32;101045.63;;;24.04
15544;BMP180;7873;52.230;12.856;2022-09-03T11:00:04;101040.09;;;24.05
15544;BMP180;7873;52.230;12.856;2022-09-03T11:02:49;101027.09;;;24.09
15544;BMP180;7873;52.230;12.856;2022-09-03T11:05:21;101036.84;;;24.10
15544;BMP180;7873;52.230;12.856;2022-09-03T11:08:00;101026.94;;;24.10
15544;BMP180;7873;52.230;12.856;2022-09-03T11:10:32;101029.94;;;24.15
15544;BMP180;7873;52.230;12.856;2022-09-03T11:13:03;101031.25;;;24.19
15544;BMP180;7873;52.230;12.856;2022-09-03T11:15:33;101028.84;;;24.24
15544;BMP180;7873;52.230;12.856;2022-09-03T11:18:06;101021.94;;;24.30
15544;BMP180;7873;52.230;12.856;2022-09-03T11:20:35;101017.88;;;24.34
15544;BMP180;7873;52.230;12.856;2022-09-03T11:23:03;101013.50;;;24.33
15544;BMP180;7873;52.230;12.856;2022-09-03T11:25:34;101015.81;;;24.36
15544;BMP180;7873;52.230;12.856;2022-09-03T11:28:11;101003.72;;;24.40
15544;BMP180;7873;52.230;12.856;2022-09-03T11:30:51;101014.28;;;24.41
15544;BMP180;7873;52.230;12.856;2022-09-03T11:33:26;101004.00;;;24.45
15544;BMP180;7873;52.230;12.856;2022-09-03T11:35:56;101018.78;;;24.49
15544;BMP180;7873;52.230;12.856;2022-09-03T11:38:26;101007.50;;;24.53
15544;BMP180;7873;52.230;12.856;2022-09-03T11:41:09;101008.38;;;24.68
15544;BMP180;7873;52.230;12.856;2022-09-03T11:43:37;100997.19;;;24.79
15544;BMP180;7873;52.230;12.856;2022-09-03T11:46:06;100988.19;;;24.87
15544;BMP180;7873;52.230;12.856;2022-09-03T11:48:38;100996.19;;;24.95
15544;BMP180;7873;52.230;12.856;2022-09-03T11:51:19;100999.53;;;24.97
15544;BMP180;7873;52.230;12.856;2022-09-03T11:53:54;101005.13;;;24.95
15544;BMP180;7873;52.230;12.856;2022-09-03T11:56:21;100986.72;;;24.99
15544;BMP180;7873;52.230;12.856;2022-09-03T11:58:59;100993.59;;;25.01
15544;BMP180;7873;52.230;12.856;2022-09-03T12:01:27;100988.38;;;25.00
15544;BMP180;7873;52.230;12.856;2022-09-03T12:03:57;100994.63;;;25.00
15544;BMP180;7873;52.230;12.856;2022-09-03T12:06:59;100989.25;;;25.00
15544;BMP180;7873;52.230;12.856;2022-09-03T12:09:37;100992.38;;;25.04
15544;BMP180;7873;52.230;12.856;2022-09-03T12:12:19;100989.69;;;25.04
15544;BMP180;7873;52.230;12.856;2022-09-03T12:14:59;100984.28;;;25.04
15544;BMP180;7873;52.230;12.856;2022-09-03T12:17:32;100977.25;;;25.03
15544;BMP180;7873;52.230;12.856;2022-09-03T12:20:00;100975.56;;;25.02
15544;BMP180;7873;52.230;12.856;2022-09-03T12:22:35;100974.09;;;24.99
15544;BMP180;7873;52.230;12.856;2022-09-03T12:25:07;100980.13;;;25.01
15544;BMP180;7873;52.230;12.856;2022-09-03T12:27:35;100984.03;;;24.99
15544;BMP180;7873;52.230;12.856;2022-09-03T12:30:03;100977.34;;;24.95
15544;BMP180;7873;52.230;12.856;2022-09-03T12:32:32;100968.50;;;24.86
15544;BMP180;7873;52.230;12.856;2022-09-03T12:35:10;100978.63;;;24.84
15544;BMP180;7873;52.230;12.856;2022-09-03T12:37:40;100965.31;;;24.83
15544;BMP180;7873;52.230;12.856;2022-09-03T12:40:16;100969.59;;;24.77
15544;BMP180;7873;52.230;12.856;2022-09-03T12:42:43;100962.81;;;24.81
15544;BMP180;7873;52.230;12.856;2022-09-03T12:45:11;100973.59;;;24.81
15544;BMP180;7873;52.230;12.856;2022-09-03T12:47:41;100976.47;;;24.80
15544;BMP180;7873;52.230;12.856;2022-09-03T12:50:10;100969.31;;;24.72
15544;BMP180;7873;52.230;12.856;2022-09-03T12:52:41;100953.50;;;24.69
15544;BMP180;7873;52.230;12.856;2022-09-03T12:55:20;100959.72;;;24.70
15544;BMP180;7873;52.230;12.856;2022-09-03T12:57:55;100953.50;;;24.69
15544;BMP180;7873;52.230;12.856;2022-09-03T13:00:28;100949.13;;;24.68
15544;BMP180;7873;52.230;12.856;2022-09-03T13:02:59;100957.19;;;24.68
15544;BMP180;7873;52.230;12.856;2022-09-03T13:05:30;100957.03;;;24.70
15544;BMP180;7873;52.230;12.856;2022-09-03T13:08:00;100951.38;;;24.65
15544;BMP180;7873;52.230;12.856;2022-09-03T13:10:32;100955.25;;;24.62
15544;BMP180;7873;52.230;12.856;2022-09-03T13:13:00;100950.88;;;24.61
15544;BMP180;7873;52.230;12.856;2022-09-03T13:15:28;100952.28;;;24.57
15544;BMP180;7873;52.230;12.856;2022-09-03T13:18:05;100950.75;;;24.55
15544;BMP180;7873;52.230;12.856;2022-09-03T13:20:41;100949.59;;;24.57
15544;BMP180;7873;52.230;12.856;2022-09-03T13:23:31;100935.47;;;24.55
15544;BMP180;7873;52.230;12.856;2022-09-03T13:26:07;100930.72;;;24.57
15544;BMP180;7873;52.230;12.856;2022-09-03T13:28:54;100945.00;;;24.58
15544;BMP180;7873;52.230;12.856;2022-09-03T13:31:28;100944.19;;;24.57
15544;BMP180;7873;52.230;12.856;2022-09-03T13:33:58;100946.03;;;24.57
15544;BMP180;7873;52.230;12.856;2022-09-03T13:36:29;100941.31;;;24.59
15544;BMP180;7873;52.230;12.856;2022-09-03T13:39:00;100930.38;;;24.60
15544;BMP180;7873;52.230;12.856;2022-09-03T13:41:34;100922.66;;;24.57
15544;BMP180;7873;52.230;12.856;2022-09-03T13:44:06;100930.91;;;24.56
15544;BMP180;7873;52.230;12.856;2022-09-03T13:46:40;100922.66;;;24.57
15544;BMP180;7873;52.230;12.856;2022-09-03T13:49:19;100920.78;;;24.58
15544;BMP180;7873;52.230;12.856;2022-09-03T13:52:12;100918.78;;;24.60
15544;BMP180;7873;52.230;12.856;2022-09-03T13:54:51;100920.78;;;24.58
15544;BMP180;7873;52.230;12.856;2022-09-03T13:57:27;100909.84;;;24.59
15544;BMP180;7873;52.230;12.856;2022-09-03T13:59:58;100915.88;;;24.61
15544;BMP180;7873;52.230;12.856;2022-09-03T14:02:30;100909.31;;;24.64
15544;BMP180;7873;52.230;12.856;2022-09-03T14:05:03;100912.00;;;24.64
15544;BMP180;7873;52.230;12.856;2022-09-03T14:07:43;100913.00;;;24.63
15544;BMP180;7873;52.230;12.856;2022-09-03T14:10:21;100904.09;;;24.62
15544;BMP180;7873;52.230;12.856;2022-09-03T14:12:50;100908.28;;;24.65
15544;BMP180;7873;52.230;12.856;2022-09-03T14:15:21;100905.75;;;24.63
15544;BMP180;7873;52.230;12.856;2022-09-03T14:17:58;100909.31;;;24.64
15544;BMP180;7873;52.230;12.856;2022-09-03T14:20:30;100902.03;;;24.64
15544;BMP180;7873;52.230;12.856;2022-09-03T14:23:02;100898.53;;;24.64
15544;BMP180;7873;52.230;12.856;2022-09-03T14:25:32;100903.91;;;24.64
15544;BMP180;7873;52.230;12.856;2022-09-03T14:28:12;100901.22;;;24.64
15544;BMP180;7873;52.230;12.856;2022-09-03T14:30:46;100904.56;;;24.66
15544;BMP180;7873;52.230;12.856;2022-09-03T14:33:20;100899.19;;;24.66